createdAt,value
2018-05-06T00:00:19.162Z,16.50
2018-05-06T00:02:46.599Z,16.50
2018-05-06T00:05:14.082Z,16.50
2018-05-06T00:07:41.550Z,16.50
2018-05-06T00:10:09.021Z,16.40
2018-05-06T00:12:36.507Z,16.40
2018-05-06T00:15:03.965Z,16.40
2018-05-06T00:17:31.413Z,16.30
2018-05-06T00:19:58.870Z,16.30
2018-05-06T00:22:26.336Z,16.20
2018-05-06T00:24:53.802Z,16.10
2018-05-06T00:27:21.254Z,16.10
2018-05-06T00:29:49.504Z,16.00
2018-05-06T00:32:16.953Z,16.00
2018-05-06T00:34:44.391Z,16.10
2018-05-06T00:37:11.845Z,16.10
2018-05-06T00:39:40.124Z,16.00
2018-05-06T00:42:08.332Z,15.90
2018-05-06T00:44:35.811Z,15.90
2018-05-06T00:47:03.263Z,15.90
2018-05-06T00:49:31.495Z,15.80
2018-05-06T00:51:58.950Z,15.80
2018-05-06T00:54:38.435Z,15.70
2018-05-06T00:57:06.007Z,15.70
2018-05-06T00:59:33.486Z,15.70
2018-05-06T01:02:01.045Z,15.60
2018-05-06T01:04:28.617Z,15.50
2018-05-06T01:06:56.086Z,15.50
2018-05-06T01:09:23.558Z,15.40
2018-05-06T01:11:51.029Z,15.30
2018-05-06T01:14:18.502Z,15.30
2018-05-06T01:16:45.941Z,15.20
2018-05-06T01:19:13.415Z,15.20
2018-05-06T01:21:40.906Z,15.10
2018-05-06T01:24:08.377Z,15.00
2018-05-06T01:26:35.855Z,14.90
2018-05-06T01:29:03.297Z,14.90
2018-05-06T01:31:31.503Z,14.90
2018-05-06T01:33:58.978Z,14.80
2018-05-06T01:36:26.439Z,14.80
2018-05-06T01:38:53.913Z,14.80
2018-05-06T01:41:21.352Z,14.80
2018-05-06T01:43:48.847Z,14.70
2018-05-06T01:46:16.326Z,14.70
2018-05-06T01:48:43.824Z,14.70
2018-05-06T01:51:12.055Z,14.60
2018-05-06T01:53:39.504Z,14.60
2018-05-06T01:56:06.978Z,14.50
2018-05-06T01:58:34.510Z,14.50
2018-05-06T02:01:01.970Z,14.50
2018-05-06T02:03:29.520Z,14.40
2018-05-06T02:05:56.987Z,14.40
2018-05-06T02:08:24.443Z,14.30
2018-05-06T02:10:51.939Z,14.30
2018-05-06T02:13:19.392Z,14.30
2018-05-06T02:15:46.852Z,14.20
2018-05-06T02:18:14.315Z,14.20
2018-05-06T02:20:41.756Z,14.20
2018-05-06T02:23:09.228Z,14.20
2018-05-06T02:25:36.722Z,14.10
2018-05-06T02:28:04.175Z,14.00
2018-05-06T02:30:31.692Z,14.00
2018-05-06T02:32:59.177Z,14.00
2018-05-06T02:35:26.729Z,13.90
2018-05-06T02:37:54.173Z,13.80
2018-05-06T02:40:21.651Z,13.80
2018-05-06T02:42:49.110Z,13.70
2018-05-06T02:45:16.566Z,13.60
2018-05-06T02:47:44.013Z,13.60
2018-05-06T02:50:12.274Z,13.40
2018-05-06T02:52:39.739Z,13.30
2018-05-06T02:55:07.214Z,13.30
2018-05-06T02:57:34.676Z,13.20
2018-05-06T03:00:02.170Z,13.00
2018-05-06T03:02:29.623Z,12.90
2018-05-06T03:04:57.084Z,12.80
2018-05-06T03:07:24.559Z,12.70
2018-05-06T03:09:52.019Z,12.80
2018-05-06T03:12:19.496Z,12.80
2018-05-06T03:14:46.939Z,12.90
2018-05-06T03:17:14.455Z,12.90
2018-05-06T03:19:41.926Z,12.90
2018-05-06T03:22:09.394Z,12.90
2018-05-06T03:24:36.841Z,12.80
2018-05-06T03:27:04.303Z,12.80
2018-05-06T03:29:31.743Z,12.90
2018-05-06T03:31:59.193Z,12.90
2018-05-06T03:34:27.554Z,12.80
2018-05-06T03:36:55.025Z,12.80
2018-05-06T03:39:22.507Z,12.80
2018-05-06T03:41:50.077Z,12.70
2018-05-06T03:44:17.519Z,12.70
2018-05-06T03:46:44.991Z,12.70
2018-05-06T03:49:12.454Z,12.70
2018-05-06T03:51:39.904Z,12.70
2018-05-06T03:54:07.351Z,12.70
2018-05-06T03:56:56.264Z,12.70
2018-05-06T03:59:35.562Z,12.60
2018-05-06T04:05:11.539Z,12.60
2018-05-06T04:07:38.983Z,12.60
2018-05-06T04:10:06.436Z,12.60
2018-05-06T04:12:33.931Z,12.60
2018-05-06T04:15:02.104Z,12.60
2018-05-06T04:17:29.540Z,12.60
2018-05-06T04:19:57.782Z,12.70
2018-05-06T04:22:25.271Z,12.60
2018-05-06T04:24:52.722Z,12.70
2018-05-06T04:27:20.167Z,12.70
2018-05-06T04:29:47.628Z,12.80
2018-05-06T04:32:15.145Z,12.80
2018-05-06T04:34:42.614Z,12.80
2018-05-06T04:37:10.063Z,12.80
2018-05-06T04:39:37.515Z,12.80
2018-05-06T04:42:04.978Z,12.80
2018-05-06T04:44:32.582Z,12.90
2018-05-06T04:47:00.059Z,12.90
2018-05-06T04:49:27.491Z,12.90
2018-05-06T04:51:54.960Z,12.90
2018-05-06T04:54:22.416Z,12.90
2018-05-06T04:56:49.946Z,13.00
2018-05-06T04:59:17.414Z,13.00
2018-05-06T05:01:44.871Z,13.00
2018-05-06T05:04:12.343Z,13.00
2018-05-06T05:06:39.818Z,13.00
2018-05-06T05:09:07.287Z,13.00
2018-05-06T05:11:34.732Z,13.00
2018-05-06T05:14:02.186Z,13.00
2018-05-06T05:16:29.650Z,13.00
2018-05-06T05:18:57.101Z,13.10
2018-05-06T05:21:25.330Z,13.10
2018-05-06T05:23:52.819Z,13.10
2018-05-06T05:26:20.287Z,13.20
2018-05-06T05:28:47.720Z,13.30
2018-05-06T05:31:15.233Z,13.30
2018-05-06T05:33:42.682Z,13.40
2018-05-06T05:36:10.124Z,13.40
2018-05-06T05:38:37.596Z,13.50
2018-05-06T05:41:05.031Z,13.50
2018-05-06T05:43:32.472Z,13.60
2018-05-06T05:45:59.930Z,13.70
2018-05-06T05:48:27.398Z,13.70
2018-05-06T05:50:54.858Z,13.70
2018-05-06T05:53:22.307Z,13.80
2018-05-06T05:55:49.760Z,13.90
2018-05-06T05:58:17.994Z,14.00
2018-05-06T06:00:45.439Z,14.00
2018-05-06T06:03:12.914Z,14.00
2018-05-06T06:05:40.348Z,14.10
2018-05-06T06:08:07.783Z,14.20
2018-05-06T06:10:36.008Z,14.30
2018-05-06T06:13:04.222Z,14.40
2018-05-06T06:15:31.747Z,14.40
2018-05-06T06:17:59.150Z,14.50
2018-05-06T06:20:27.390Z,14.60
2018-05-06T06:22:54.834Z,14.60
2018-05-06T06:25:22.422Z,14.70
2018-05-06T06:27:49.878Z,14.70
2018-05-06T06:30:17.339Z,14.80
2018-05-06T06:32:44.795Z,14.90
2018-05-06T06:35:13.018Z,15.10
2018-05-06T06:37:40.483Z,15.10
2018-05-06T06:40:07.933Z,15.20
2018-05-06T06:42:35.406Z,15.30
2018-05-06T06:45:02.855Z,15.30
2018-05-06T06:47:31.074Z,15.40
2018-05-06T06:49:58.574Z,15.40
2018-05-06T06:52:26.030Z,15.50
2018-05-06T06:54:53.469Z,15.60
2018-05-06T06:57:20.935Z,15.70
2018-05-06T06:59:49.150Z,15.90
2018-05-06T07:02:16.649Z,15.90
2018-05-06T07:04:44.103Z,16.00
2018-05-06T07:07:11.566Z,16.10
2018-05-06T07:09:39.028Z,16.20
2018-05-06T07:12:06.477Z,16.30
2018-05-06T07:14:34.694Z,16.40
2018-05-06T07:17:02.158Z,16.40
2018-05-06T07:19:29.635Z,16.50
2018-05-06T07:21:57.092Z,16.60
2018-05-06T07:24:25.311Z,16.80
2018-05-06T07:26:52.856Z,16.80
2018-05-06T07:29:20.311Z,16.80
2018-05-06T07:31:50.165Z,17.00
2018-05-06T07:34:17.745Z,16.90
2018-05-06T07:36:45.188Z,17.10
2018-05-06T07:39:13.424Z,17.20
2018-05-06T07:41:40.870Z,17.10
2018-05-06T07:44:08.343Z,17.30
2018-05-06T07:46:35.810Z,17.40
2018-05-06T07:49:03.272Z,17.50
2018-05-06T07:51:31.482Z,17.60
2018-05-06T07:53:58.931Z,17.60
2018-05-06T07:56:27.141Z,17.80
2018-05-06T07:58:54.647Z,17.80
2018-05-06T08:01:22.859Z,18.10
2018-05-06T08:03:51.081Z,18.20
2018-05-06T08:06:18.520Z,18.20
2018-05-06T08:08:46.749Z,18.40
2018-05-06T08:11:14.196Z,18.40
2018-05-06T08:13:41.658Z,18.40
2018-05-06T08:16:09.920Z,18.70
2018-05-06T08:18:37.352Z,18.70
2018-05-06T08:21:04.832Z,18.80
2018-05-06T08:23:32.280Z,18.90
2018-05-06T08:25:59.776Z,18.90
2018-05-06T08:28:27.223Z,19.00
2018-05-06T08:30:54.768Z,19.10
2018-05-06T08:33:23.060Z,19.20
2018-05-06T08:35:50.447Z,19.20
2018-05-06T08:38:17.910Z,19.30
2018-05-06T08:40:45.359Z,19.40
2018-05-06T08:43:13.596Z,19.60
2018-05-06T08:45:41.087Z,19.50
2018-05-06T08:48:08.533Z,19.70
2018-05-06T08:50:35.982Z,19.80
2018-05-06T08:53:03.424Z,19.90
2018-05-06T08:55:31.684Z,20.10
2018-05-06T08:57:59.145Z,20.00
2018-05-06T09:00:26.588Z,20.20
2018-05-06T09:02:54.038Z,20.20
2018-05-06T09:05:22.260Z,20.40
2018-05-06T09:07:49.718Z,20.40
2018-05-06T09:10:17.175Z,20.50
2018-05-06T09:12:44.628Z,20.60
2018-05-06T09:15:12.086Z,20.60
2018-05-06T09:17:39.540Z,20.70
2018-05-06T09:20:07.180Z,20.80
2018-05-06T09:22:34.628Z,20.90
2018-05-06T09:25:02.090Z,21.00
2018-05-06T09:27:29.544Z,21.10
2018-05-06T09:29:57.412Z,21.20
2018-05-06T09:32:24.949Z,21.20
2018-05-06T09:34:52.335Z,21.30
2018-05-06T09:37:19.777Z,21.50
2018-05-06T09:39:47.228Z,21.50
2018-05-06T09:42:14.766Z,21.70
2018-05-06T09:44:42.207Z,21.80
2018-05-06T09:47:09.662Z,21.90
2018-05-06T09:49:37.165Z,22.00
2018-05-06T09:52:04.623Z,22.10
2018-05-06T09:54:32.082Z,22.20
2018-05-06T09:56:59.543Z,22.20
2018-05-06T09:59:27.775Z,22.50
2018-05-06T10:01:55.239Z,22.50
2018-05-06T10:04:22.699Z,22.60
2018-05-06T10:06:50.136Z,22.70
2018-05-06T10:09:18.405Z,22.90
2018-05-06T10:11:45.857Z,22.90
2018-05-06T10:14:13.310Z,23.00
2018-05-06T10:16:44.965Z,23.10
2018-05-06T10:19:12.430Z,23.10
2018-05-06T10:21:40.640Z,23.30
2018-05-06T10:24:08.088Z,23.30
2018-05-06T10:26:36.288Z,23.40
2018-05-06T10:29:03.741Z,23.40
2018-05-06T10:31:31.940Z,23.40
2018-05-06T10:33:59.418Z,23.40
2018-05-06T10:36:26.882Z,23.50
2018-05-06T10:38:54.353Z,23.70
2018-05-06T10:41:21.800Z,23.80
2018-05-06T10:43:50.016Z,24.10
2018-05-06T10:46:17.478Z,24.10
2018-05-06T10:48:44.944Z,24.20
2018-05-06T10:51:12.459Z,24.30
2018-05-06T10:53:39.942Z,24.40
2018-05-06T10:56:07.395Z,24.50
2018-05-06T10:58:34.867Z,24.70
2018-05-06T11:01:02.305Z,24.80
2018-05-06T11:03:29.773Z,24.80
2018-05-06T11:05:57.238Z,24.90
2018-05-06T11:08:24.698Z,25.00
2018-05-06T11:10:52.144Z,25.10
2018-05-06T11:13:19.604Z,25.20
2018-05-06T11:15:47.048Z,25.30
2018-05-06T11:18:14.510Z,25.30
2018-05-06T11:20:41.970Z,25.80
2018-05-06T11:23:09.412Z,26.70
2018-05-06T11:25:37.638Z,28.40
2018-05-06T11:28:05.111Z,28.30
2018-05-06T11:30:32.576Z,29.20
2018-05-06T11:33:00.016Z,29.70
2018-05-06T11:35:27.472Z,30.40
2018-05-06T11:37:55.717Z,31.70
2018-05-06T11:40:23.175Z,31.70
2018-05-06T11:42:50.613Z,32.00
2018-05-06T11:45:18.076Z,32.80
2018-05-06T11:47:46.292Z,33.60
2018-05-06T11:50:13.766Z,33.60
2018-05-06T11:52:41.259Z,34.10
2018-05-06T11:55:08.730Z,34.50
2018-05-06T11:57:36.198Z,35.40
2018-05-06T12:00:03.660Z,35.80
2018-05-06T12:02:31.104Z,36.30
2018-05-06T12:04:58.591Z,36.60
2018-05-06T12:07:26.048Z,36.80
2018-05-06T12:09:53.569Z,37.70
2018-05-06T12:12:21.740Z,38.60
2018-05-06T12:14:49.940Z,38.70
2018-05-06T12:17:17.403Z,38.70
2018-05-06T12:19:44.855Z,38.60
2018-05-06T12:22:12.312Z,38.20
2018-05-06T12:24:39.751Z,38.00
2018-05-06T12:27:07.275Z,38.00
2018-05-06T12:29:34.737Z,38.30
2018-05-06T12:32:04.950Z,39.10
2018-05-06T12:34:32.462Z,39.60
2018-05-06T12:36:59.930Z,39.70
2018-05-06T12:39:27.378Z,39.80
2018-05-06T12:41:54.843Z,39.50
2018-05-06T12:44:22.298Z,40.00
2018-05-06T12:46:49.770Z,40.40
2018-05-06T12:49:17.216Z,39.80
2018-05-06T12:51:45.447Z,39.90
2018-05-06T12:54:12.918Z,39.90
2018-05-06T12:56:40.365Z,39.90
2018-05-06T12:59:07.804Z,39.90
2018-05-06T13:01:35.271Z,40.40
2018-05-06T13:04:02.716Z,40.00
2018-05-06T13:06:30.174Z,39.80
2018-05-06T13:08:57.615Z,39.70
2018-05-06T13:11:25.139Z,39.70
2018-05-06T13:13:52.521Z,40.10
2018-05-06T13:16:20.730Z,39.70
2018-05-06T13:18:48.171Z,39.60
2018-05-06T13:21:15.681Z,39.60
2018-05-06T13:23:43.147Z,39.50
2018-05-06T13:26:10.593Z,40.00
2018-05-06T13:28:38.132Z,40.10
2018-05-06T13:31:05.602Z,39.70
2018-05-06T13:33:33.066Z,40.20
2018-05-06T13:36:00.527Z,40.50
2018-05-06T13:38:27.964Z,41.10
2018-05-06T13:40:56.206Z,42.00
2018-05-06T13:43:23.651Z,42.00
2018-05-06T13:45:51.153Z,42.20
2018-05-06T13:48:18.647Z,42.50
2018-05-06T13:50:46.904Z,43.20
2018-05-06T13:56:04.925Z,43.40
2018-05-06T13:58:33.125Z,43.10
2018-05-06T14:01:00.611Z,43.10
2018-05-06T14:03:28.090Z,43.00
2018-05-06T14:05:55.604Z,43.20
2018-05-06T14:08:22.980Z,43.40
2018-05-06T14:10:50.436Z,43.50
2018-05-06T14:13:17.905Z,43.70
2018-05-06T14:15:45.360Z,43.50
2018-05-06T14:18:12.837Z,43.60
2018-05-06T14:20:40.321Z,43.10
2018-05-06T14:23:07.787Z,43.00
2018-05-06T14:25:35.242Z,43.40
2018-05-06T14:28:02.685Z,43.40
2018-05-06T14:30:30.133Z,43.70
2018-05-06T14:32:57.582Z,44.60
2018-05-06T14:35:25.814Z,45.60
2018-05-06T14:37:53.281Z,45.50
2018-05-06T14:40:20.756Z,45.20
2018-05-06T14:42:48.196Z,45.50
2018-05-06T14:45:15.717Z,46.00
2018-05-06T14:47:55.142Z,46.20
2018-05-06T14:50:22.606Z,46.00
2018-05-06T14:52:50.044Z,45.90
2018-05-06T14:55:18.254Z,46.20
2018-05-06T14:57:45.723Z,46.30
2018-05-06T15:00:13.178Z,46.60
2018-05-06T15:02:41.406Z,46.50
2018-05-06T15:05:08.864Z,46.50
2018-05-06T15:07:36.318Z,46.80
2018-05-06T15:10:03.783Z,46.90
2018-05-06T15:12:31.238Z,46.70
2018-05-06T15:14:59.452Z,46.70
2018-05-06T15:17:26.918Z,46.70
2018-05-06T15:19:54.369Z,47.00
2018-05-06T15:22:22.583Z,47.50
2018-05-06T15:25:05.151Z,47.50
2018-05-06T15:27:32.624Z,47.00
2018-05-06T15:30:00.053Z,46.70
2018-05-06T15:32:27.504Z,47.30
2018-05-06T15:34:54.984Z,47.40
2018-05-06T15:37:22.456Z,47.40
2018-05-06T15:39:49.917Z,47.30
2018-05-06T15:42:17.370Z,47.30
2018-05-06T15:44:45.603Z,48.20
2018-05-06T15:47:13.044Z,48.30
2018-05-06T15:49:40.501Z,48.60
2018-05-06T15:52:07.952Z,48.20
2018-05-06T15:54:36.177Z,47.90
2018-05-06T15:57:03.642Z,47.90
2018-05-06T15:59:31.130Z,48.60
2018-05-06T16:02:06.398Z,48.60
2018-05-06T16:04:33.875Z,48.40
2018-05-06T16:07:01.335Z,48.10
2018-05-06T16:09:28.821Z,48.00
2018-05-06T16:11:56.354Z,47.50
2018-05-06T16:14:23.728Z,47.10
2018-05-06T16:16:51.175Z,46.90
2018-05-06T16:19:18.647Z,47.10
2018-05-06T16:21:46.114Z,46.20
2018-05-06T16:24:13.564Z,46.10
2018-05-06T16:26:41.821Z,45.60
2018-05-06T16:29:09.223Z,45.50
2018-05-06T16:31:37.471Z,45.80
2018-05-06T16:34:04.938Z,45.80
2018-05-06T16:36:32.395Z,46.20
2018-05-06T16:38:59.841Z,46.10
2018-05-06T16:41:27.314Z,46.10
2018-05-06T16:43:54.771Z,46.00
2018-05-06T16:46:22.982Z,45.60
2018-05-06T16:48:50.432Z,45.60
2018-05-06T16:51:17.889Z,45.50
2018-05-06T16:53:46.098Z,46.10
2018-05-06T16:56:13.571Z,46.00
2018-05-06T16:58:41.019Z,46.00
2018-05-06T17:01:09.250Z,45.90
2018-05-06T17:03:36.715Z,45.90
2018-05-06T17:06:04.162Z,46.00
2018-05-06T17:08:31.618Z,46.10
2018-05-06T17:10:59.838Z,45.50
2018-05-06T17:13:27.330Z,45.50
2018-05-06T17:15:54.772Z,44.80
2018-05-06T17:18:22.221Z,44.50
2018-05-06T17:20:49.674Z,44.30
2018-05-06T17:23:17.904Z,43.70
2018-05-06T17:25:45.353Z,43.70
2018-05-06T17:28:12.845Z,44.00
2018-05-06T17:30:40.318Z,43.70
2018-05-06T17:33:07.809Z,43.30
2018-05-06T17:35:35.244Z,42.90
2018-05-06T17:38:02.691Z,42.40
2018-05-06T17:40:30.912Z,42.20
2018-05-06T17:42:58.360Z,42.10
2018-05-06T17:45:25.823Z,41.50
2018-05-06T17:47:54.059Z,40.90
2018-05-06T17:50:21.519Z,39.80
2018-05-06T17:52:48.539Z,38.80
2018-05-06T17:55:15.558Z,37.50
2018-05-06T17:57:42.560Z,36.60
2018-05-06T18:00:09.570Z,35.80
2018-05-06T18:02:36.593Z,34.80
2018-05-06T18:05:04.041Z,34.10
2018-05-06T18:07:32.352Z,32.70
2018-05-06T18:09:59.720Z,32.60
2018-05-06T18:12:27.184Z,32.00
2018-05-06T18:14:54.665Z,31.50
2018-05-06T18:17:22.150Z,31.10
2018-05-06T18:19:49.594Z,30.70
2018-05-06T18:22:17.063Z,30.30
2018-05-06T18:24:44.630Z,30.10
2018-05-06T18:27:11.979Z,29.80
2018-05-06T18:29:40.206Z,29.40
2018-05-06T18:32:07.675Z,29.30
2018-05-06T18:34:35.158Z,29.20
2018-05-06T18:37:02.625Z,29.00
2018-05-06T18:39:30.083Z,28.90
2018-05-06T18:41:57.543Z,28.70
2018-05-06T18:44:25.003Z,28.70
2018-05-06T18:46:52.517Z,28.60
2018-05-06T18:49:19.937Z,28.50
2018-05-06T18:51:47.392Z,28.40
2018-05-06T18:54:14.848Z,28.30
2018-05-06T18:56:43.081Z,28.00
2018-05-06T18:59:10.572Z,28.00
2018-05-06T19:01:38.024Z,27.90
2018-05-06T19:04:05.495Z,27.70
2018-05-06T19:06:32.942Z,27.50
2018-05-06T19:09:00.407Z,27.40
2018-05-06T19:11:27.856Z,27.30
2018-05-06T19:13:56.088Z,27.00
2018-05-06T19:16:23.550Z,27.00
2018-05-06T19:18:50.993Z,26.90
2018-05-06T19:21:18.461Z,26.70
2018-05-06T19:23:45.924Z,26.50
2018-05-06T19:26:14.144Z,26.20
2018-05-06T19:28:41.613Z,26.20
2018-05-06T19:31:09.069Z,26.10
2018-05-06T19:33:36.532Z,26.10
2018-05-06T19:36:03.549Z,25.90
2018-05-06T19:38:30.563Z,25.80
2018-05-06T19:40:57.575Z,25.60
2018-05-06T19:43:24.670Z,25.50
2018-05-06T19:45:52.454Z,25.10
2018-05-06T19:48:19.447Z,25.10
2018-05-06T19:50:46.477Z,24.90
2018-05-06T19:53:13.472Z,24.90
2018-05-06T19:55:40.467Z,24.90
2018-05-06T19:58:08.267Z,24.80
2018-05-06T20:00:35.265Z,24.80
2018-05-06T20:03:02.297Z,24.70
2018-05-06T20:05:29.302Z,24.70
2018-05-06T20:07:56.370Z,24.60
2018-05-06T20:10:24.245Z,24.50
2018-05-06T20:12:52.088Z,24.40
2018-05-06T20:15:19.049Z,24.40
2018-05-06T20:17:46.129Z,24.30
2018-05-06T20:20:14.344Z,24.20
2018-05-06T20:22:42.598Z,24.20
2018-05-06T20:25:10.067Z,24.20
2018-05-06T20:27:37.519Z,24.10
2018-05-06T20:30:05.002Z,24.00
2018-05-06T20:32:32.514Z,23.90
2018-05-06T20:34:59.920Z,23.90
2018-05-06T20:37:27.385Z,23.80
2018-05-06T20:39:54.846Z,23.80
2018-05-06T20:42:22.352Z,23.70
2018-05-06T20:44:49.803Z,23.70
2018-05-06T20:47:17.258Z,23.60
2018-05-06T20:49:44.703Z,23.60
2018-05-06T20:52:12.944Z,23.40
2018-05-06T20:54:40.400Z,23.40
2018-05-06T20:57:07.905Z,23.40
2018-05-06T20:59:35.452Z,23.30
2018-05-06T21:02:03.012Z,23.20
2018-05-06T21:04:30.388Z,23.20
2018-05-06T21:06:57.854Z,23.20
2018-05-06T21:09:25.322Z,23.10
2018-05-06T21:11:52.779Z,23.00
2018-05-06T21:14:20.234Z,22.90
2018-05-06T21:16:47.693Z,22.90
2018-05-06T21:19:15.970Z,22.80
2018-05-06T21:21:43.407Z,22.80
2018-05-06T21:24:10.857Z,22.70
2018-05-06T21:26:38.314Z,22.60
2018-05-06T21:29:05.816Z,22.50
2018-05-06T21:31:33.285Z,22.50
2018-05-06T21:34:00.749Z,22.40
2018-05-06T21:36:28.212Z,22.40
2018-05-06T21:38:55.664Z,22.30
2018-05-06T21:41:23.111Z,22.20
2018-05-06T21:43:51.330Z,22.20
2018-05-06T21:46:18.817Z,22.20
2018-05-06T21:48:46.283Z,22.20
2018-05-06T21:51:13.759Z,22.10
2018-05-06T21:53:41.238Z,22.10
2018-05-06T21:56:08.697Z,22.10
2018-05-06T21:58:36.159Z,21.90
2018-05-06T22:01:03.634Z,21.80
2018-05-06T22:03:31.085Z,21.80
2018-05-06T22:05:58.536Z,21.70
2018-05-06T22:08:26.781Z,21.60
2018-05-06T22:10:55.040Z,21.40
2018-05-06T22:13:22.517Z,21.50
2018-05-06T22:15:50.114Z,21.40
2018-05-06T22:18:18.321Z,21.20
2018-05-06T22:20:46.538Z,21.10
2018-05-06T22:23:14.038Z,21.10
2018-05-06T22:25:41.531Z,21.00
2018-05-06T22:28:09.084Z,20.90
2018-05-06T22:30:36.559Z,20.80
2018-05-06T22:33:04.054Z,20.70
2018-05-06T22:35:31.607Z,20.70
2018-05-06T22:37:59.092Z,20.70
2018-05-06T22:40:26.602Z,20.70
2018-05-06T22:42:54.053Z,20.60
2018-05-06T22:45:21.511Z,20.60
2018-05-06T22:47:49.013Z,20.50
2018-05-06T22:50:17.223Z,20.40
2018-05-06T22:52:44.785Z,20.40
2018-05-06T22:55:12.296Z,20.40
2018-05-06T22:57:39.756Z,20.30
2018-05-06T23:00:07.234Z,20.30
2018-05-06T23:02:34.679Z,20.30
2018-05-06T23:05:02.146Z,20.20
2018-05-06T23:07:29.588Z,20.10
2018-05-06T23:09:58.539Z,20.00
2018-05-06T23:12:26.004Z,20.00
2018-05-06T23:14:53.517Z,20.00
2018-05-06T23:17:21.737Z,19.80
2018-05-06T23:19:49.241Z,19.80
2018-05-06T23:22:16.754Z,19.80
2018-05-06T23:24:44.172Z,19.70
2018-05-06T23:27:11.625Z,19.70
2018-05-06T23:29:39.098Z,19.70
2018-05-06T23:32:06.602Z,19.70
2018-05-06T23:34:34.066Z,19.70
2018-05-06T23:37:01.520Z,19.60
2018-05-06T23:39:28.975Z,19.60
2018-05-06T23:41:56.479Z,19.60
2018-05-06T23:44:23.943Z,19.50
2018-05-06T23:46:51.435Z,19.50
2018-05-06T23:49:19.001Z,19.50
2018-05-06T23:51:46.548Z,19.40
2018-05-06T23:54:14.018Z,19.40
2018-05-06T23:56:41.482Z,19.30
2018-05-06T23:59:08.937Z,19.30
